createdAt,value
2018-01-28T00:00:30.134Z,195.95
2018-01-28T00:02:57.709Z,173.93
2018-01-28T00:05:25.264Z,168.60
2018-01-28T00:07:52.862Z,168.83
2018-01-28T00:10:20.449Z,169.80
2018-01-28T00:12:48.097Z,177.55
2018-01-28T00:15:15.734Z,187.82
2018-01-28T00:17:43.362Z,191.68
2018-01-28T00:20:10.992Z,180.52
2018-01-28T00:22:38.766Z,202.38
2018-01-28T00:25:06.313Z,186.70
2018-01-28T00:27:33.862Z,194.55
2018-01-28T00:30:01.418Z,186.37
2018-01-28T00:32:29.036Z,182.35
2018-01-28T00:34:56.625Z,187.98
2018-01-28T00:37:24.174Z,169.30
2018-01-28T00:39:51.723Z,175.95
2018-01-28T00:42:19.286Z,180.45
2018-01-28T00:44:46.835Z,176.45
2018-01-28T00:47:14.438Z,176.30
2018-01-28T00:49:41.992Z,176.43
2018-01-28T00:52:09.546Z,186.20
2018-01-28T00:54:37.102Z,173.65
2018-01-28T00:57:04.824Z,181.87
2018-01-28T00:59:32.632Z,185.50
2018-01-28T01:02:00.182Z,177.48
2018-01-28T01:04:27.793Z,185.82
2018-01-28T01:06:55.350Z,186.12
2018-01-28T01:09:22.898Z,182.40
2018-01-28T01:11:50.506Z,173.02
2018-01-28T01:14:18.050Z,176.87
2018-01-28T01:16:45.606Z,176.55
2018-01-28T01:19:13.165Z,174.30
2018-01-28T01:21:40.722Z,168.48
2018-01-28T01:24:08.310Z,182.98
2018-01-28T01:26:36.028Z,168.60
2018-01-28T01:29:03.653Z,170.77
2018-01-28T01:31:31.243Z,165.93
2018-01-28T01:33:58.786Z,188.40
2018-01-28T01:36:26.502Z,186.15
2018-01-28T01:38:54.049Z,171.87
2018-01-28T01:41:21.591Z,170.70
2018-01-28T01:43:49.145Z,153.70
2018-01-28T01:46:17.671Z,167.62
2018-01-28T01:48:45.401Z,176.77
2018-01-28T01:51:13.213Z,184.68
2018-01-28T01:53:41.029Z,187.12
2018-01-28T01:56:08.583Z,190.45
2018-01-28T01:58:36.130Z,187.62
2018-01-28T02:01:03.777Z,184.50
2018-01-28T02:03:31.407Z,199.60
2018-01-28T02:05:58.958Z,199.75
2018-01-28T02:08:26.524Z,192.15
2018-01-28T02:10:54.071Z,192.90
2018-01-28T02:13:21.726Z,185.57
2018-01-28T02:15:49.390Z,189.23
2018-01-28T02:18:17.004Z,189.07
2018-01-28T02:20:44.580Z,180.25
2018-01-28T02:23:12.134Z,183.73
2018-01-28T02:25:39.734Z,200.68
2018-01-28T02:28:07.286Z,186.15
2018-01-28T02:30:34.830Z,176.15
2018-01-28T02:33:02.386Z,185.95
2018-01-28T02:35:30.096Z,182.52
2018-01-28T02:37:57.686Z,177.43
2018-01-28T02:40:25.466Z,179.45
2018-01-28T02:42:53.017Z,163.45
2018-01-28T02:45:20.565Z,175.90
2018-01-28T02:47:48.109Z,155.98
2018-01-28T02:50:15.936Z,172.27
2018-01-28T02:52:43.484Z,176.98
2018-01-28T02:55:11.045Z,173.32
2018-01-28T02:57:38.605Z,173.38
2018-01-28T03:00:06.146Z,167.40
2018-01-28T03:02:33.733Z,173.20
2018-01-28T03:05:01.442Z,174.50
2018-01-28T03:07:29.160Z,155.43
2018-01-28T03:09:56.879Z,157.57
2018-01-28T03:12:24.495Z,156.35
2018-01-28T03:14:52.222Z,177.75
2018-01-28T03:17:19.785Z,172.13
2018-01-28T03:19:47.329Z,167.55
2018-01-28T03:22:14.874Z,162.10
2018-01-28T03:24:42.430Z,167.90
2018-01-28T03:27:09.988Z,156.00
2018-01-28T03:29:37.553Z,180.23
2018-01-28T03:32:05.178Z,185.50
2018-01-28T03:34:32.753Z,177.18
2018-01-28T03:37:00.346Z,159.37
2018-01-28T03:39:28.062Z,158.55
2018-01-28T03:41:55.809Z,162.82
2018-01-28T03:44:23.402Z,168.50
2018-01-28T03:46:50.942Z,162.95
2018-01-28T03:49:18.521Z,167.48
2018-01-28T03:51:46.074Z,177.68
2018-01-28T03:54:13.617Z,173.20
2018-01-28T03:56:41.229Z,179.57
2018-01-28T03:59:08.769Z,193.30
2018-01-28T04:01:36.553Z,173.87
2018-01-28T04:04:04.126Z,183.52
2018-01-28T04:06:31.887Z,188.15
2018-01-28T04:08:59.610Z,190.48
2018-01-28T04:11:27.151Z,180.15
2018-01-28T04:13:54.847Z,165.20
2018-01-28T04:16:22.453Z,171.45
2018-01-28T04:18:49.994Z,179.55
2018-01-28T04:21:17.585Z,178.85
2018-01-28T04:23:45.126Z,175.50
2018-01-28T04:26:12.834Z,173.38
2018-01-28T04:28:40.382Z,196.35
2018-01-28T04:31:07.926Z,192.73
2018-01-28T04:33:35.582Z,187.48
2018-01-28T04:36:03.133Z,191.35
2018-01-28T04:38:30.674Z,186.70
2018-01-28T04:40:58.342Z,214.38
2018-01-28T04:43:25.894Z,216.63
2018-01-28T04:45:53.673Z,203.05
2018-01-28T04:48:21.226Z,211.82
2018-01-28T04:50:48.778Z,198.45
2018-01-28T04:53:16.430Z,195.57
2018-01-28T04:55:43.986Z,191.70
2018-01-28T04:58:11.722Z,188.45
2018-01-28T05:00:39.337Z,190.68
2018-01-28T05:03:06.882Z,189.75
2018-01-28T05:05:34.462Z,181.40
2018-01-28T05:08:02.078Z,187.27
2018-01-28T05:10:29.754Z,198.32
2018-01-28T05:12:57.410Z,180.80
2018-01-28T05:15:25.090Z,174.12
2018-01-28T05:17:52.633Z,185.73
2018-01-28T05:20:20.422Z,198.45
2018-01-28T05:22:47.994Z,180.82
2018-01-28T05:25:15.582Z,184.13
2018-01-28T05:27:43.190Z,185.15
2018-01-28T05:30:10.732Z,174.38
2018-01-28T05:32:38.411Z,185.35
2018-01-28T05:35:06.034Z,180.27
2018-01-28T05:37:33.625Z,181.27
2018-01-28T05:40:01.265Z,179.73
2018-01-28T05:42:28.878Z,202.40
2018-01-28T05:44:56.497Z,230.05
2018-01-28T05:47:24.128Z,221.73
2018-01-28T05:49:51.722Z,213.20
2018-01-28T05:52:19.268Z,196.43
2018-01-28T05:54:46.817Z,207.27
2018-01-28T05:57:14.466Z,197.30
2018-01-28T05:59:42.114Z,195.30
2018-01-28T06:02:09.730Z,179.85
2018-01-28T06:04:37.346Z,170.98
2018-01-28T06:07:04.890Z,171.02
2018-01-28T06:09:32.678Z,187.75
2018-01-28T06:12:00.396Z,177.18
2018-01-28T06:14:28.114Z,166.98
2018-01-28T06:16:55.683Z,167.00
2018-01-28T06:19:23.354Z,189.68
2018-01-28T06:21:51.168Z,196.63
2018-01-28T06:24:18.744Z,189.95
2018-01-28T06:26:46.510Z,190.85
2018-01-28T06:29:14.088Z,203.43
2018-01-28T06:31:41.634Z,207.32
2018-01-28T06:34:09.263Z,173.15
2018-01-28T06:36:36.986Z,198.20
2018-01-28T06:39:04.610Z,192.20
2018-01-28T06:41:32.186Z,288.85
2018-01-28T06:43:59.764Z,268.98
2018-01-28T06:46:27.547Z,220.43
2018-01-28T06:48:55.271Z,193.73
2018-01-28T06:51:23.086Z,203.30
2018-01-28T06:53:50.665Z,200.20
2018-01-28T06:56:18.421Z,185.18
2018-01-28T06:58:46.138Z,174.18
2018-01-28T07:01:13.809Z,165.80
2018-01-28T07:03:41.410Z,163.62
2018-01-28T07:06:08.965Z,169.18
2018-01-28T07:08:36.667Z,172.10
2018-01-28T07:11:04.224Z,182.27
2018-01-28T07:13:31.863Z,166.95
2018-01-28T07:15:59.453Z,179.43
2018-01-28T07:18:27.006Z,185.30
2018-01-28T07:20:54.575Z,199.95
2018-01-28T07:23:22.126Z,194.57
2018-01-28T07:25:49.734Z,201.53
2018-01-28T07:28:17.458Z,187.73
2018-01-28T07:30:45.000Z,175.80
2018-01-28T07:33:12.542Z,172.20
2018-01-28T07:35:40.310Z,155.10
2018-01-28T07:38:07.855Z,190.33
2018-01-28T07:40:35.740Z,204.50
2018-01-28T07:43:03.273Z,169.13
2018-01-28T07:45:30.946Z,166.03
2018-01-28T07:47:58.490Z,167.97
2018-01-28T07:50:26.042Z,160.43
2018-01-28T07:52:53.666Z,154.93
2018-01-28T07:55:21.236Z,155.00
2018-01-28T07:57:48.810Z,145.50
2018-01-28T08:00:16.383Z,133.63
2018-01-28T08:02:44.013Z,134.87
2018-01-28T08:05:11.594Z,135.27
2018-01-28T08:07:39.194Z,143.57
2018-01-28T08:13:13.537Z,152.50
2018-01-28T08:15:41.234Z,121.43
2018-01-28T08:18:08.809Z,123.63
2018-01-28T08:20:36.352Z,121.67
2018-01-28T08:23:04.146Z,109.40
2018-01-28T08:25:31.738Z,112.37
2018-01-28T08:28:03.282Z,119.63
2018-01-28T08:30:30.842Z,86.93
2018-01-28T08:32:58.414Z,79.93
2018-01-28T08:35:26.030Z,84.37
2018-01-28T08:37:53.771Z,58.60
2018-01-28T08:40:21.394Z,68.77
2018-01-28T08:42:48.987Z,72.93
2018-01-28T08:45:16.529Z,81.43
2018-01-28T08:47:44.152Z,80.30
2018-01-28T08:50:11.731Z,46.87
2018-01-28T08:52:39.359Z,73.93
2018-01-28T08:55:07.227Z,78.90
2018-01-28T08:57:34.785Z,83.90
2018-01-28T09:00:02.338Z,90.90
2018-01-28T09:02:29.874Z,96.90
2018-01-28T09:04:57.462Z,96.27
2018-01-28T09:07:25.118Z,87.93
2018-01-28T09:09:52.708Z,89.03
2018-01-28T09:12:20.269Z,99.17
2018-01-28T09:14:47.810Z,97.80
2018-01-28T09:17:15.350Z,89.37
2018-01-28T09:19:42.898Z,84.97
2018-01-28T09:22:10.622Z,93.93
2018-01-28T09:24:38.339Z,83.00
2018-01-28T09:27:05.914Z,85.53
2018-01-28T09:29:33.578Z,86.90
2018-01-28T09:32:01.119Z,84.63
2018-01-28T09:34:28.911Z,82.40
2018-01-28T09:36:56.535Z,97.43
2018-01-28T09:39:24.081Z,95.90
2018-01-28T09:41:51.638Z,100.30
2018-01-28T09:44:19.177Z,86.30
2018-01-28T09:46:46.796Z,73.50
2018-01-28T09:49:14.394Z,161.27
2018-01-28T09:51:42.135Z,101.63
2018-01-28T09:54:09.827Z,94.10
2018-01-28T09:56:37.382Z,94.20
2018-01-28T09:59:05.218Z,92.43
2018-01-28T10:01:32.802Z,80.97
2018-01-28T10:04:00.524Z,87.87
2018-01-28T10:06:28.075Z,88.20
2018-01-28T10:08:55.610Z,81.47
2018-01-28T10:11:23.192Z,96.37
2018-01-28T10:13:50.995Z,97.67
2018-01-28T10:16:18.623Z,94.73
2018-01-28T10:18:46.169Z,105.43
2018-01-28T10:21:14.854Z,109.97
2018-01-28T10:23:42.438Z,109.00
2018-01-28T10:26:09.980Z,80.17
2018-01-28T10:28:37.518Z,71.90
2018-01-28T10:31:05.066Z,92.73
2018-01-28T10:33:32.610Z,84.20
2018-01-28T10:36:00.362Z,81.47
2018-01-28T10:38:27.907Z,90.20
2018-01-28T10:43:31.751Z,101.80
2018-01-28T10:45:59.293Z,101.37
2018-01-28T10:48:26.874Z,78.07
2018-01-28T10:50:54.595Z,64.30
2018-01-28T10:53:22.193Z,80.27
2018-01-28T10:55:49.832Z,62.17
2018-01-28T10:58:17.434Z,60.83
2018-01-28T11:00:45.022Z,65.70
2018-01-28T11:03:12.882Z,68.27
2018-01-28T11:05:40.511Z,70.90
2018-01-28T11:08:08.058Z,60.73
2018-01-28T11:10:35.602Z,60.93
2018-01-28T11:13:03.190Z,69.27
2018-01-28T11:15:30.875Z,60.27
2018-01-28T11:17:58.409Z,60.63
2018-01-28T11:20:25.978Z,66.53
2018-01-28T11:22:53.563Z,59.00
2018-01-28T11:25:21.346Z,55.80
2018-01-28T11:27:48.897Z,65.70
2018-01-28T11:30:16.883Z,51.67
2018-01-28T11:32:44.430Z,60.17
2018-01-28T11:35:12.467Z,74.53
2018-01-28T11:37:40.312Z,73.93
2018-01-28T11:40:08.139Z,58.97
2018-01-28T11:42:35.694Z,53.87
2018-01-28T11:45:03.274Z,53.07
2018-01-28T11:47:31.177Z,54.33
2018-01-28T11:49:59.004Z,50.97
2018-01-28T11:52:26.651Z,68.87
2018-01-28T11:54:54.365Z,51.40
2018-01-28T11:57:22.766Z,49.83
2018-01-28T11:59:50.490Z,71.87
2018-01-28T12:02:18.069Z,82.70
2018-01-28T12:04:45.602Z,76.23
2018-01-28T12:07:13.138Z,56.27
2018-01-28T12:09:40.694Z,69.20
2018-01-28T12:12:08.242Z,55.23
2018-01-28T12:14:35.830Z,56.47
2018-01-28T12:17:03.362Z,61.43
2018-01-28T12:19:30.898Z,50.87
2018-01-28T12:21:58.442Z,56.17
2018-01-28T12:24:25.974Z,49.83
2018-01-28T12:26:53.566Z,50.73
2018-01-28T12:29:21.223Z,49.60
2018-01-28T12:31:48.794Z,58.20
2018-01-28T12:34:16.378Z,44.20
2018-01-28T12:36:43.922Z,46.07
2018-01-28T12:39:11.529Z,45.50
2018-01-28T12:41:39.066Z,40.50
2018-01-28T12:44:06.602Z,47.13
2018-01-28T12:46:34.146Z,45.27
2018-01-28T12:49:01.681Z,48.10
2018-01-28T12:51:29.475Z,47.00
2018-01-28T12:53:57.070Z,42.23
2018-01-28T12:56:24.609Z,42.13
2018-01-28T12:58:52.333Z,38.10
2018-01-28T13:01:19.873Z,38.03
2018-01-28T13:03:47.466Z,43.47
2018-01-28T13:06:15.012Z,42.67
2018-01-28T13:08:42.555Z,40.73
2018-01-28T13:11:10.110Z,48.97
2018-01-28T13:13:37.650Z,59.37
2018-01-28T13:16:05.237Z,57.47
2018-01-28T13:18:32.775Z,55.17
2018-01-28T13:21:00.318Z,54.17
2018-01-28T13:23:27.866Z,42.87
2018-01-28T13:25:55.408Z,54.73
2018-01-28T13:28:23.002Z,42.27
2018-01-28T13:30:50.713Z,40.07
2018-01-28T13:33:18.258Z,52.40
2018-01-28T13:35:45.858Z,45.37
2018-01-28T13:38:13.408Z,53.10
2018-01-28T13:40:41.135Z,55.63
2018-01-28T13:43:08.674Z,64.57
2018-01-28T13:45:36.374Z,91.83
2018-01-28T13:48:04.082Z,67.23
2018-01-28T13:50:31.702Z,58.00
2018-01-28T13:52:59.426Z,84.83
2018-01-28T13:55:27.034Z,58.93
2018-01-28T13:57:54.565Z,53.37
2018-01-28T14:00:22.121Z,48.77
2018-01-28T14:02:49.657Z,50.57
2018-01-28T14:05:17.353Z,52.53
2018-01-28T14:07:44.894Z,60.30
2018-01-28T14:10:12.437Z,64.57
2018-01-28T14:12:40.166Z,58.13
2018-01-28T14:15:07.839Z,50.63
2018-01-28T14:17:35.430Z,46.33
2018-01-28T14:20:03.100Z,45.17
2018-01-28T14:22:31.692Z,45.10
2018-01-28T14:24:59.251Z,52.17
2018-01-28T14:27:27.781Z,54.27
2018-01-28T14:29:55.353Z,47.80
2018-01-28T14:32:24.019Z,192.23
2018-01-28T14:34:52.204Z,181.63
2018-01-28T14:37:20.851Z,473.73
2018-01-28T14:39:48.727Z,418.87
2018-01-28T14:42:16.281Z,370.60
2018-01-28T14:44:43.850Z,441.67
2018-01-28T14:47:11.507Z,133.20
2018-01-28T14:49:39.042Z,64.00
2018-01-28T14:52:06.586Z,68.23
2018-01-28T14:54:34.174Z,147.03
2018-01-28T14:57:01.787Z,116.57
2018-01-28T14:59:29.407Z,262.03
2018-01-28T15:01:56.966Z,396.50
2018-01-28T15:04:24.526Z,294.47
2018-01-28T15:06:52.065Z,178.00
2018-01-28T15:09:19.667Z,187.93
2018-01-28T15:11:47.214Z,184.07
2018-01-28T15:14:14.987Z,151.97
2018-01-28T15:16:42.537Z,266.97
2018-01-28T15:19:10.148Z,221.63
2018-01-28T15:21:37.938Z,405.60
2018-01-28T15:24:05.478Z,497.33
2018-01-28T15:26:33.017Z,266.97
2018-01-28T15:29:00.567Z,234.23
2018-01-28T15:31:28.128Z,653.40
2018-01-28T15:33:55.874Z,444.20
2018-01-28T15:36:23.418Z,264.63
2018-01-28T15:38:50.965Z,283.97
2018-01-28T15:41:18.518Z,532.03
2018-01-28T15:43:46.135Z,250.33
2018-01-28T15:46:13.749Z,306.33
2018-01-28T15:48:41.374Z,320.60
2018-01-28T15:51:08.989Z,283.43
2018-01-28T15:53:36.619Z,462.97
2018-01-28T15:56:04.206Z,311.60
2018-01-28T15:58:31.810Z,830.33
2018-01-28T16:00:59.378Z,654.43
2018-01-28T16:03:26.930Z,423.03
2018-01-28T16:05:54.518Z,459.40
2018-01-28T16:08:22.313Z,540.57
2018-01-28T16:10:50.131Z,490.77
2018-01-28T16:13:17.850Z,368.80
2018-01-28T16:15:45.386Z,82.30
2018-01-28T16:18:12.926Z,84.47
2018-01-28T16:20:40.608Z,224.23
2018-01-28T16:23:08.197Z,251.50
2018-01-28T16:25:35.777Z,217.57
2018-01-28T16:28:03.327Z,254.37
2018-01-28T16:30:30.874Z,238.57
2018-01-28T16:32:58.418Z,245.63
2018-01-28T16:35:26.208Z,220.77
2018-01-28T16:37:53.930Z,175.90
2018-01-28T16:40:21.749Z,182.93
2018-01-28T16:42:49.504Z,252.07
2018-01-28T16:45:17.085Z,221.77
2018-01-28T16:47:44.701Z,239.90
2018-01-28T16:50:12.269Z,211.00
2018-01-28T16:52:39.825Z,262.87
2018-01-28T16:55:07.413Z,292.97
2018-01-28T16:57:35.070Z,346.77
2018-01-28T17:00:02.888Z,488.87
2018-01-28T17:02:30.616Z,533.50
2018-01-28T17:04:58.324Z,327.33
2018-01-28T17:07:25.985Z,261.33
2018-01-28T17:09:53.551Z,227.80
2018-01-28T17:12:21.379Z,237.53
2018-01-28T17:14:49.100Z,272.20
2018-01-28T17:17:16.916Z,343.60
2018-01-28T17:19:44.528Z,500.37
2018-01-28T17:22:12.176Z,486.83
2018-01-28T17:24:39.802Z,456.13
2018-01-28T17:27:07.568Z,471.83
2018-01-28T17:29:35.134Z,458.33
2018-01-28T17:32:02.815Z,440.83
2018-01-28T17:34:30.389Z,391.70
2018-01-28T17:36:57.999Z,367.67
2018-01-28T17:39:25.657Z,390.97
2018-01-28T17:41:53.396Z,425.63
2018-01-28T17:44:21.213Z,496.60
2018-01-28T17:46:48.823Z,441.67
2018-01-28T17:49:16.440Z,244.30
2018-01-28T17:51:44.059Z,326.10
2018-01-28T17:54:11.617Z,339.77
2018-01-28T17:56:39.175Z,353.73
2018-01-28T17:59:06.732Z,277.67
2018-01-28T18:01:34.324Z,637.57
2018-01-28T18:04:01.954Z,209.80
2018-01-28T18:06:29.534Z,256.37
2018-01-28T18:08:57.090Z,347.93
2018-01-28T18:11:24.818Z,387.23
2018-01-28T18:13:52.416Z,177.90
2018-01-28T18:16:19.978Z,116.20
2018-01-28T18:18:47.560Z,182.07
2018-01-28T18:21:15.380Z,154.63
2018-01-28T18:23:42.910Z,87.47
2018-01-28T18:26:10.623Z,116.53
2018-01-28T18:28:38.232Z,110.30
2018-01-28T18:31:05.806Z,129.30
2018-01-28T18:33:33.354Z,148.07
2018-01-28T18:36:00.959Z,206.80
2018-01-28T18:38:28.546Z,207.37
2018-01-28T18:40:56.327Z,171.47
2018-01-28T18:43:24.110Z,138.77
2018-01-28T18:45:51.831Z,119.50
2018-01-28T18:48:19.371Z,114.40
2018-01-28T18:50:47.018Z,186.03
2018-01-28T18:53:14.813Z,149.97
2018-01-28T18:55:42.442Z,456.47
2018-01-28T18:58:10.055Z,424.13
2018-01-28T19:00:37.767Z,424.30
2018-01-28T19:03:05.362Z,472.27
2018-01-28T19:05:32.910Z,401.47
2018-01-28T19:08:00.510Z,258.83
2018-01-28T19:10:28.130Z,240.00
2018-01-28T19:12:55.778Z,439.17
2018-01-28T19:15:23.373Z,418.20
2018-01-28T19:17:51.108Z,365.93
2018-01-28T19:20:18.883Z,256.43
2018-01-28T19:22:46.599Z,223.73
2018-01-28T19:25:14.150Z,535.90
2018-01-28T19:27:41.770Z,650.60
2018-01-28T19:30:09.498Z,445.50
2018-01-28T19:32:37.109Z,329.30
2018-01-28T19:35:04.694Z,217.47
2018-01-28T19:37:32.436Z,227.17
2018-01-28T19:39:59.973Z,212.53
2018-01-28T19:42:27.529Z,280.10
2018-01-28T19:44:55.188Z,240.60
2018-01-28T19:47:22.915Z,202.70
2018-01-28T19:49:50.498Z,197.57
2018-01-28T19:52:18.144Z,159.20
2018-01-28T19:54:45.713Z,177.97
2018-01-28T19:57:13.249Z,175.30
2018-01-28T19:59:40.798Z,135.63
2018-01-28T20:02:08.372Z,154.27
2018-01-28T20:04:35.922Z,168.00
2018-01-28T20:07:03.474Z,138.57
2018-01-28T20:09:31.056Z,147.27
2018-01-28T20:11:58.785Z,208.23
2018-01-28T20:14:26.379Z,174.07
2018-01-28T20:16:54.119Z,216.13
2018-01-28T20:19:21.668Z,243.77
2018-01-28T20:21:49.229Z,238.13
2018-01-28T20:24:16.786Z,253.00
2018-01-28T20:26:44.384Z,181.23
2018-01-28T20:29:11.958Z,168.70
2018-01-28T20:31:39.661Z,180.73
2018-01-28T20:34:07.445Z,188.93
2018-01-28T20:36:34.998Z,204.63
2018-01-28T20:39:02.620Z,287.43
2018-01-28T20:41:30.167Z,241.83
2018-01-28T20:43:57.808Z,205.07
2018-01-28T20:46:25.375Z,232.93
2018-01-28T20:48:53.159Z,190.43
2018-01-28T20:51:20.762Z,193.00
2018-01-28T20:53:48.302Z,187.10
2018-01-28T20:56:15.846Z,208.97
2018-01-28T20:58:43.530Z,297.73
2018-01-28T21:01:11.253Z,365.50
2018-01-28T21:03:38.964Z,225.37
2018-01-28T21:06:06.509Z,306.70
2018-01-28T21:08:34.055Z,218.47
2018-01-28T21:11:01.812Z,444.57
2018-01-28T21:13:29.529Z,195.77
2018-01-28T21:15:57.118Z,178.00
2018-01-28T21:18:24.771Z,184.30
2018-01-28T21:20:52.318Z,170.67
2018-01-28T21:23:19.875Z,189.87
2018-01-28T21:25:47.526Z,172.47
2018-01-28T21:28:15.110Z,176.43
2018-01-28T21:30:42.855Z,200.43
2018-01-28T21:33:10.678Z,242.77
2018-01-28T21:35:38.237Z,225.20
2018-01-28T21:38:05.963Z,240.47
2018-01-28T21:40:33.541Z,225.77
2018-01-28T21:43:01.089Z,206.53
2018-01-28T21:45:28.632Z,178.97
2018-01-28T21:47:56.276Z,140.90
2018-01-28T21:50:23.816Z,130.20
2018-01-28T21:52:51.617Z,141.90
2018-01-28T21:55:19.334Z,122.23
2018-01-28T21:57:46.899Z,207.93
2018-01-28T22:00:14.494Z,218.77
2018-01-28T22:02:42.239Z,184.43
2018-01-28T22:05:09.822Z,184.20
2018-01-28T22:07:37.358Z,144.50
2018-01-28T22:10:04.910Z,135.10
2018-01-28T22:12:32.469Z,236.43
2018-01-28T22:15:00.276Z,81.93
2018-01-28T22:17:27.889Z,151.87
2018-01-28T22:19:55.612Z,178.70
2018-01-28T22:22:23.161Z,180.63
2018-01-28T22:24:50.713Z,181.20
2018-01-28T22:27:18.258Z,175.27
2018-01-28T22:29:45.882Z,269.47
2018-01-28T22:32:13.518Z,225.70
2018-01-28T22:34:41.228Z,186.70
2018-01-28T22:37:08.782Z,180.00
2018-01-28T22:39:36.518Z,185.73
2018-01-28T22:42:04.232Z,170.53
2018-01-28T22:44:31.898Z,163.57
2018-01-28T22:46:59.466Z,209.63
2018-01-28T22:49:27.016Z,178.63
2018-01-28T22:51:54.566Z,170.40
2018-01-28T22:54:22.132Z,189.67
2018-01-28T22:56:49.718Z,189.80
2018-01-28T22:59:17.497Z,154.30
2018-01-28T23:01:45.071Z,144.00
2018-01-28T23:04:12.801Z,170.07
2018-01-28T23:06:40.335Z,173.37
2018-01-28T23:09:08.170Z,177.63
2018-01-28T23:11:35.708Z,162.27
2018-01-28T23:14:03.407Z,177.13
2018-01-28T23:16:30.962Z,170.93
2018-01-28T23:18:58.539Z,176.73
2018-01-28T23:21:26.131Z,189.83
2018-01-28T23:23:53.745Z,192.13
2018-01-28T23:26:21.289Z,209.47
2018-01-28T23:28:48.868Z,203.63
2018-01-28T23:31:16.531Z,203.73
2018-01-28T23:33:44.123Z,189.97
2018-01-28T23:36:11.670Z,192.00
2018-01-28T23:38:39.290Z,197.87
2018-01-28T23:41:06.994Z,200.60
2018-01-28T23:43:34.609Z,197.10
2018-01-28T23:46:02.198Z,172.33
2018-01-28T23:48:29.734Z,163.77
2018-01-28T23:50:57.590Z,167.47
2018-01-28T23:53:25.133Z,190.00
2018-01-28T23:55:52.810Z,177.93
2018-01-28T23:58:20.396Z,194.03
